Time;durP1;ratioP1;P1;durP2;ratioP2;P2;SDS_P1;SDS_P2;PMS_P1;PMS_P2;Temp;Humidity;BMP_temperature;BMP_pressure;BME280_temperature;BME280_humidity;BME280_pressure;Samples;Min_cycle;Max_cycle;Signal;HPM_P1;HPM_P2
2024/01/28 00:02:26;;;;;;;40.50;16.10;;;;;;;0.85;100.00;103202.69;5289873;27;20077;-71
2024/01/28 00:04:56;;;;;;;38.70;15.43;;;;;;;0.81;100.00;103205.50;5296994;27;20023;-72
2024/01/28 00:07:27;;;;;;;51.92;16.02;;;;;;;0.75;100.00;103201.25;5287036;27;20480;-71
2024/01/28 00:09:57;;;;;;;41.35;15.52;;;;;;;0.79;100.00;103197.59;5291420;27;20502;-71
2024/01/28 00:12:28;;;;;;;43.85;15.32;;;;;;;0.79;100.00;103197.59;5297163;27;20072;-71
2024/01/28 00:14:59;;;;;;;39.58;15.75;;;;;;;0.77;100.00;103189.72;5295401;27;20015;-72
2024/01/28 00:17:29;;;;;;;39.63;15.55;;;;;;;0.74;100.00;103194.22;5291072;27;20068;-71
2024/01/28 00:20:00;;;;;;;37.45;15.98;;;;;;;0.68;100.00;103190.00;5296922;27;20100;-71
2024/01/28 00:22:30;;;;;;;37.22;14.38;;;;;;;0.70;100.00;103189.94;5292285;27;20515;-71
2024/01/28 00:25:01;;;;;;;31.00;14.40;;;;;;;0.71;100.00;103191.69;5303510;27;20023;-71
2024/01/28 00:27:31;;;;;;;38.42;14.48;;;;;;;0.75;100.00;103186.28;5290127;27;20388;-71
2024/01/28 00:30:04;;;;;;;46.40;15.75;;;;;;;0.75;100.00;103182.75;5301003;27;20072;-71
2024/01/28 00:32:34;;;;;;;33.80;14.65;;;;;;;0.73;100.00;103180.16;5286218;28;20447;-71
2024/01/28 00:35:05;;;;;;;31.67;14.45;;;;;;;0.69;100.00;103180.28;5295186;27;20108;-71
2024/01/28 00:37:36;;;;;;;37.35;14.88;;;;;;;0.63;100.00;103175.19;5290562;27;20089;-71
2024/01/28 00:40:08;;;;;;;38.25;14.07;;;;;;;0.57;100.00;103176.25;5286148;28;20022;-71
2024/01/28 00:42:38;;;;;;;31.60;15.38;;;;;;;0.49;100.00;103172.94;5291158;27;20132;-71
2024/01/28 00:45:09;;;;;;;34.78;14.90;;;;;;;0.50;100.00;103169.41;5291324;27;20023;-71
2024/01/28 00:47:41;;;;;;;41.00;15.73;;;;;;;0.53;100.00;103171.97;5292224;27;20046;-71
2024/01/28 00:50:12;;;;;;;39.40;14.65;;;;;;;0.54;100.00;103164.91;5294015;27;20027;-71
2024/01/28 00:52:43;;;;;;;39.08;14.23;;;;;;;0.55;100.00;103166.63;5296160;27;20085;-71
2024/01/28 00:55:14;;;;;;;32.72;12.48;;;;;;;0.59;100.00;103173.56;5288638;27;20047;-71
2024/01/28 00:57:45;;;;;;;34.28;15.27;;;;;;;0.60;100.00;103180.56;5293921;27;20051;-71
2024/01/28 01:00:16;;;;;;;34.17;13.85;;;;;;;0.60;100.00;103170.84;5291064;27;20026;-71
2024/01/28 01:02:46;;;;;;;41.15;17.25;;;;;;;0.64;100.00;103174.28;5298623;27;20488;-71
2024/01/28 01:05:17;;;;;;;36.50;15.13;;;;;;;0.61;100.00;103166.47;5297805;27;20392;-71
2024/01/28 01:07:47;;;;;;;37.22;14.25;;;;;;;0.59;100.00;103162.97;5289795;27;20031;-71
2024/01/28 01:10:22;;;;;;;40.70;15.77;;;;;;;0.55;100.00;103162.19;5294855;27;20027;-71
2024/01/28 01:12:53;;;;;;;;;;;;;;;0.48;100.00;103153.59;5290940;27;20028;-71
2024/01/28 01:15:23;;;;;;;38.75;14.00;;;;;;;0.41;100.00;103154.69;5290583;27;19911;-71
2024/01/28 01:17:54;;;;;;;37.13;14.48;;;;;;;0.34;100.00;103155.78;5291976;27;20046;-71
2024/01/28 01:20:24;;;;;;;33.17;13.40;;;;;;;0.29;100.00;103152.41;5291310;27;20012;-71
2024/01/28 01:22:55;;;;;;;37.17;13.95;;;;;;;0.25;100.00;103150.75;5289669;27;20507;-71
2024/01/28 01:25:25;;;;;;;34.83;13.43;;;;;;;0.26;100.00;103149.88;5283812;28;20019;-71
2024/01/28 01:27:56;;;;;;;39.03;12.52;;;;;;;0.27;100.00;103150.72;5289201;27;20026;-72
2024/01/28 01:30:26;;;;;;;32.53;13.45;;;;;;;0.24;100.00;103149.88;5290218;27;20023;-71
2024/01/28 01:32:57;;;;;;;35.25;13.25;;;;;;;0.26;100.00;103147.22;5289570;27;20019;-71
2024/01/28 01:35:27;;;;;;;39.45;15.30;;;;;;;0.29;100.00;103136.56;5291789;27;20536;-71
2024/01/28 01:37:58;;;;;;;33.78;13.20;;;;;;;0.30;100.00;103121.56;5291459;27;20061;-71
2024/01/28 01:40:28;;;;;;;38.80;13.13;;;;;;;0.28;100.00;103119.00;5283287;27;20044;-71
2024/01/28 01:42:58;;;;;;;30.33;12.25;;;;;;;0.24;100.00;103120.84;5289434;27;20015;-71
2024/01/28 01:45:29;;;;;;;29.58;13.45;;;;;;;0.21;100.00;103115.66;5291573;27;20041;-71
2024/01/28 01:48:00;;;;;;;35.08;12.57;;;;;;;0.20;100.00;103105.13;5289157;27;20027;-71
2024/01/28 01:50:30;;;;;;;36.88;13.00;;;;;;;0.17;100.00;103108.75;5283989;27;20530;-71
2024/01/28 01:53:02;;;;;;;29.88;12.35;;;;;;;0.14;100.00;103102.69;5288113;27;20059;-71
2024/01/28 01:55:35;;;;;;;37.58;13.40;;;;;;;0.11;100.00;103097.50;5283641;27;20020;-71
2024/01/28 01:58:07;;;;;;;30.42;12.63;;;;;;;0.09;100.00;103094.03;5294388;27;20026;-71
2024/01/28 02:00:38;;;;;;;28.55;12.30;;;;;;;0.08;100.00;103097.59;5286131;27;20034;-71
2024/01/28 02:03:08;;;;;;;27.05;11.80;;;;;;;0.09;100.00;103100.16;5292653;27;20031;-71
2024/01/28 02:05:39;;;;;;;34.78;11.27;;;;;;;0.14;100.00;103092.97;5287052;27;20516;-71
2024/01/28 02:08:28;;;;;;;33.55;11.30;;;;;;;0.16;100.00;103085.91;5286801;27;20378;-70
2024/01/28 02:11:02;;;;;;;25.70;9.95;;;;;;;0.23;100.00;103079.53;5285032;28;20630;-70
2024/01/28 02:13:33;;;;;;;35.05;10.85;;;;;;;0.27;100.00;103082.09;5285172;27;20035;-70
2024/01/28 02:16:03;;;;;;;36.08;10.68;;;;;;;0.28;100.00;103081.16;5291974;27;20384;-70
2024/01/28 02:18:34;;;;;;;22.27;10.38;;;;;;;0.28;100.00;103086.44;5287532;27;20039;-70
2024/01/28 02:21:05;;;;;;;30.90;10.30;;;;;;;0.29;100.00;103073.19;5295100;27;20034;-70
2024/01/28 02:23:36;;;;;;;38.95;10.82;;;;;;;0.31;100.00;103075.81;5289581;27;20435;-69
2024/01/28 02:26:06;;;;;;;25.95;10.13;;;;;;;0.32;100.00;103083.66;5295274;27;20030;-70
2024/01/28 02:28:37;;;;;;;27.73;10.80;;;;;;;0.28;100.00;103075.88;5284075;28;20039;-70
2024/01/28 02:31:08;;;;;;;34.00;10.50;;;;;;;0.24;100.00;103070.69;5289789;27;20099;-70
2024/01/28 02:33:38;;;;;;;20.27;9.90;;;;;;;0.21;100.00;103070.78;5294268;27;20036;-71
2024/01/28 02:36:09;;;;;;;23.17;10.20;;;;;;;0.22;100.00;103069.88;5291637;27;20094;-70
2024/01/28 02:38:39;;;;;;;19.48;8.73;;;;;;;0.18;100.00;103062.94;5293780;27;20024;-70
2024/01/28 02:41:10;;;;;;;33.22;10.45;;;;;;;0.21;100.00;103054.09;5290599;27;20047;-70
2024/01/28 02:43:40;;;;;;;33.30;10.45;;;;;;;0.27;100.00;103053.91;5289887;28;20850;-70
2024/01/28 02:46:11;;;;;;;20.13;8.85;;;;;;;0.27;100.00;103050.41;5293757;27;20765;-70
2024/01/28 02:48:41;;;;;;;27.13;9.48;;;;;;;0.27;100.00;103053.91;5293691;28;20030;-70
2024/01/28 02:51:12;;;;;;;24.55;10.13;;;;;;;0.29;100.00;103048.56;5291894;27;20140;-70
2024/01/28 02:53:43;;;;;;;35.63;9.80;;;;;;;0.23;100.00;103054.91;5291766;28;20019;-70
2024/01/28 02:56:13;;;;;;;26.40;10.45;;;;;;;0.17;100.00;103050.66;5295722;27;20027;-70
2024/01/28 02:58:44;;;;;;;32.08;10.68;;;;;;;0.16;100.00;103046.31;5291742;28;20149;-71
2024/01/28 03:01:16;;;;;;;33.67;11.00;;;;;;;0.12;100.00;103057.84;5288853;28;20024;-71
2024/01/28 03:03:46;;;;;;;22.23;10.07;;;;;;;0.08;100.00;103050.06;5291731;28;20024;-70
2024/01/28 03:06:17;;;;;;;25.40;9.77;;;;;;;0.13;100.00;103046.38;5290367;27;20026;-70
2024/01/28 03:08:48;;;;;;;26.85;11.20;;;;;;;0.13;100.00;103037.59;5294167;28;20024;-71
2024/01/28 03:11:19;;;;;;;31.30;10.38;;;;;;;0.18;100.00;103047.09;5294231;27;20023;-70
2024/01/28 03:13:50;;;;;;;28.35;11.05;;;;;;;0.17;100.00;103045.38;5294620;28;20016;-71
2024/01/28 03:16:21;;;;;;;30.52;9.85;;;;;;;0.15;100.00;103041.03;5290509;27;20027;-70
2024/01/28 03:18:52;;;;;;;28.98;10.00;;;;;;;0.14;100.00;103036.69;5286768;28;20016;-71
2024/01/28 03:21:23;;;;;;;26.77;10.10;;;;;;;0.09;100.00;103030.69;5291384;27;20102;-71
2024/01/28 03:23:53;;;;;;;23.77;10.13;;;;;;;0.09;100.00;103025.41;5296862;27;20028;-71
2024/01/28 03:26:24;;;;;;;27.70;10.40;;;;;;;0.12;100.00;103036.75;5292265;27;20031;-71
2024/01/28 03:29:02;;;;;;;21.75;9.77;;;;;;;0.10;100.00;103030.66;5299067;27;20023;-71
2024/01/28 03:31:33;;;;;;;30.73;10.43;;;;;;;0.10;100.00;103035.03;5295081;27;20024;-70
2024/01/28 03:34:03;;;;;;;25.75;10.02;;;;;;;0.08;100.00;103040.38;5291848;27;20043;-71
2024/01/28 03:36:49;;;;;;;29.15;9.90;;;;;;;0.02;100.00;103032.66;5291177;27;20057;-71
2024/01/28 03:39:19;;;;;;;27.10;9.95;;;;;;;0.00;100.00;103039.75;5293360;27;20110;-70
2024/01/28 03:41:50;;;;;;;28.08;10.57;;;;;;;-0.02;100.00;103037.13;5290768;27;20106;-71
2024/01/28 03:44:22;;;;;;;29.00;9.30;;;;;;;-0.03;100.00;103045.09;5287641;27;20087;-71
2024/01/28 03:46:54;;;;;;;30.35;11.18;;;;;;;-0.03;100.00;103042.47;5294177;27;20035;-70
2024/01/28 03:49:25;;;;;;;23.17;10.13;;;;;;;-0.04;100.00;103043.38;5284844;28;20028;-70
2024/01/28 03:51:55;;;;;;;21.58;9.98;;;;;;;-0.06;100.00;103039.91;5288121;28;20028;-70
2024/01/28 03:54:26;;;;;;;21.23;9.63;;;;;;;-0.12;100.00;103032.19;5291794;27;20031;-70
2024/01/28 03:56:56;;;;;;;22.05;9.98;;;;;;;-0.17;100.00;103023.53;5287899;27;20034;-70
2024/01/28 03:59:27;;;;;;;30.00;10.73;;;;;;;-0.21;100.00;103008.69;5288557;27;20508;-70
2024/01/28 04:01:58;;;;;;;21.05;10.60;;;;;;;-0.27;100.00;103013.22;5294412;27;20067;-70
2024/01/28 04:04:28;;;;;;;29.83;10.43;;;;;;;-0.28;100.00;102997.47;5286086;27;20410;-70
2024/01/28 04:06:59;;;;;;;24.92;10.15;;;;;;;-0.34;100.00;103000.28;5286665;27;20625;-70
2024/01/28 04:09:32;;;;;;;23.33;9.50;;;;;;;-0.41;100.00;103002.19;5285426;28;20477;-70
2024/01/28 04:12:04;;;;;;;24.52;9.88;;;;;;;-0.48;100.00;102997.16;5291008;27;20068;-70
2024/01/28 04:14:34;;;;;;;26.35;9.55;;;;;;;-0.54;100.00;102995.56;5285281;27;20035;-70
2024/01/28 04:17:06;;;;;;;28.55;10.93;;;;;;;-0.58;100.00;102994.75;5283494;28;20563;-70
2024/01/28 04:19:36;;;;;;;30.77;11.70;;;;;;;-0.58;100.00;102986.00;5291019;27;20030;-70
2024/01/28 04:22:09;;;;;;;36.03;12.48;;;;;;;-0.58;100.00;102975.44;5287851;27;20473;-70
2024/01/28 04:24:41;;;;;;;25.92;11.20;;;;;;;-0.58;100.00;102973.69;5287383;28;20094;-70
2024/01/28 04:27:12;;;;;;;32.03;12.23;;;;;;;-0.56;100.00;102978.91;5287147;27;20055;-71
2024/01/28 04:29:42;;;;;;;28.17;10.80;;;;;;;-0.53;100.00;102977.03;5285855;27;20032;-70
2024/01/28 04:32:14;;;;;;;26.38;10.95;;;;;;;-0.49;100.00;102972.56;5289985;27;20538;-70
2024/01/28 04:34:45;;;;;;;34.35;10.68;;;;;;;-0.48;100.00;102979.56;5287303;27;20055;-70
2024/01/28 04:37:16;;;;;;;28.63;10.07;;;;;;;-0.49;100.00;102983.13;5283561;28;20489;-70
2024/01/28 04:39:47;;;;;;;25.08;10.25;;;;;;;-0.48;100.00;102970.78;5288030;27;20031;-70
2024/01/28 04:42:22;;;;;;;28.77;10.57;;;;;;;-0.47;100.00;102973.38;5289401;27;20026;-70
2024/01/28 04:44:52;;;;;;;25.00;10.30;;;;;;;-0.46;100.00;102967.19;5286804;28;20035;-70
2024/01/28 04:47:22;;;;;;;27.38;10.05;;;;;;;-0.46;100.00;102964.53;5291530;27;20023;-70
2024/01/28 04:49:53;;;;;;;25.63;9.43;;;;;;;-0.45;100.00;102962.78;5286909;27;20031;-70
2024/01/28 04:52:23;;;;;;;20.05;9.13;;;;;;;-0.46;100.00;102963.69;5293595;27;20365;-70
2024/01/28 04:54:54;;;;;;;28.50;10.38;;;;;;;-0.48;100.00;102960.25;5295373;27;20396;-70
2024/01/28 04:57:24;;;;;;;22.58;9.20;;;;;;;-0.47;100.00;102957.53;5290457;27;20020;-71
2024/01/28 04:59:55;;;;;;;23.38;9.45;;;;;;;-0.40;100.00;102953.84;5289595;27;20130;-71
2024/01/28 05:02:26;;;;;;;30.75;8.85;;;;;;;-0.35;100.00;102957.22;5292972;27;20030;-71
2024/01/28 05:04:57;;;;;;;22.52;9.38;;;;;;;-0.29;100.00;102956.16;5289883;27;20030;-71
2024/01/28 05:07:27;;;;;;;20.60;8.55;;;;;;;-0.31;100.00;102947.41;5289239;27;20034;-71
2024/01/28 05:09:58;;;;;;;31.23;9.00;;;;;;;-0.30;100.00;102946.53;5293757;27;20035;-71
2024/01/28 05:12:28;;;;;;;27.77;9.55;;;;;;;-0.24;100.00;102948.97;5290289;27;20043;-71
2024/01/28 05:15:00;;;;;;;21.35;7.90;;;;;;;-0.18;100.00;102938.25;5289217;27;23216;-71
2024/01/28 05:17:31;;;;;;;23.25;8.27;;;;;;;-0.11;100.00;102934.50;5284468;27;20027;-71
2024/01/28 05:20:02;;;;;;;27.77;9.70;;;;;;;-0.10;100.00;102933.59;5289223;27;20391;-71
2024/01/28 05:22:33;;;;;;;23.55;8.60;;;;;;;-0.08;100.00;102925.63;5284982;28;20689;-71
2024/01/28 05:25:04;;;;;;;18.30;7.15;;;;;;;-0.06;100.00;102929.06;5292026;27;20144;-70
2024/01/28 05:27:36;;;;;;;27.90;8.35;;;;;;;-0.09;100.00;102916.00;5287641;27;20107;-71
2024/01/28 05:30:07;;;;;;;20.02;6.43;;;;;;;-0.10;100.00;102916.88;5291818;27;20148;-71
2024/01/28 05:32:37;;;;;;;24.17;7.97;;;;;;;-0.08;100.00;102912.44;5286262;28;20106;-71
2024/01/28 05:35:08;;;;;;;21.70;7.72;;;;;;;-0.09;100.00;102918.63;5289140;27;20518;-71
2024/01/28 05:37:39;;;;;;;20.08;7.63;;;;;;;-0.11;100.00;102913.38;5285698;28;20064;-71
2024/01/28 05:40:10;;;;;;;27.33;7.47;;;;;;;-0.09;100.00;102910.72;5289814;27;20127;-71
2024/01/28 05:42:42;;;;;;;16.05;6.85;;;;;;;-0.08;100.00;102910.66;5280654;28;20054;-71
2024/01/28 05:45:12;;;;;;;19.00;7.15;;;;;;;-0.06;100.00;102907.97;5284190;27;20035;-71
2024/01/28 05:47:43;;;;;;;25.25;7.25;;;;;;;-0.04;100.00;102909.66;5289199;27;20092;-71
2024/01/28 05:50:13;;;;;;;15.68;6.90;;;;;;;-0.07;100.00;102911.53;5289946;27;20030;-71
2024/01/28 05:52:44;;;;;;;22.55;7.22;;;;;;;-0.08;100.00;102905.38;5286898;27;20032;-71
2024/01/28 05:55:14;;;;;;;16.55;7.15;;;;;;;-0.12;100.00;102911.66;5286084;28;20396;-71
2024/01/28 05:57:45;;;;;;;20.13;6.97;;;;;;;-0.16;100.00;102910.03;5287299;27;20160;-71
2024/01/28 06:00:16;;;;;;;18.75;7.88;;;;;;;-0.20;100.00;102903.13;5286216;27;20011;-71
2024/01/28 06:02:46;;;;;;;20.67;7.43;;;;;;;-0.21;100.00;102905.81;5288567;27;20036;-71
2024/01/28 06:05:17;;;;;;;23.80;8.60;;;;;;;-0.26;100.00;102898.03;5286202;27;20034;-71
2024/01/28 06:07:47;;;;;;;22.52;7.25;;;;;;;-0.29;100.00;102899.00;5288013;27;20553;-71
2024/01/28 06:10:18;;;;;;;23.23;7.15;;;;;;;-0.32;100.00;102898.22;5289199;27;20019;-71
2024/01/28 06:12:48;;;;;;;19.02;7.35;;;;;;;-0.36;100.00;102899.22;5287417;27;20031;-71
2024/01/28 06:15:19;;;;;;;21.08;7.15;;;;;;;-0.41;100.00;102890.56;5288006;27;20030;-71
2024/01/28 06:17:49;;;;;;;19.13;7.43;;;;;;;-0.44;100.00;102902.09;5284199;28;20031;-71
2024/01/28 06:20:20;;;;;;;20.40;7.50;;;;;;;-0.47;100.00;102891.63;5290187;27;20071;-71
2024/01/28 06:22:50;;;;;;;20.15;8.00;;;;;;;-0.48;100.00;102881.13;5280552;28;20036;-71
2024/01/28 06:25:21;;;;;;;30.90;8.52;;;;;;;-0.44;100.00;102891.53;5286468;27;20043;-71
2024/01/28 06:27:51;;;;;;;18.83;8.25;;;;;;;-0.44;100.00;102883.63;5282181;27;20114;-71
2024/01/28 06:30:22;;;;;;;21.88;7.80;;;;;;;-0.43;100.00;102888.00;5288318;27;20092;-71
2024/01/28 06:32:52;;;;;;;22.10;8.30;;;;;;;-0.45;100.00;102888.94;5282052;28;20042;-70
2024/01/28 06:35:23;;;;;;;23.63;8.20;;;;;;;-0.48;100.00;102876.72;5284234;27;20031;-71
2024/01/28 06:37:54;;;;;;;20.65;7.93;;;;;;;-0.49;100.00;102875.00;5281390;28;20027;-71
2024/01/28 06:40:24;;;;;;;25.75;7.93;;;;;;;-0.50;100.00;102882.94;5287777;27;20024;-71
2024/01/28 06:42:55;;;;;;;22.33;7.07;;;;;;;-0.43;100.00;102882.72;5287707;27;20397;-71
2024/01/28 06:45:25;;;;;;;16.75;7.28;;;;;;;-0.40;100.00;102879.09;5287548;28;20102;-71
2024/01/28 06:47:56;;;;;;;24.92;8.00;;;;;;;-0.39;100.00;102881.72;5288495;28;20115;-71
2024/01/28 06:50:26;;;;;;;27.25;8.20;;;;;;;-0.41;100.00;102869.47;5284847;28;20119;-71
2024/01/28 06:53:01;;;;;;;24.27;8.82;;;;;;;-0.42;100.00;102876.53;5289397;28;20023;-71
2024/01/28 06:55:31;;;;;;;21.02;8.85;;;;;;;-0.44;100.00;102873.09;5285345;28;20099;-71
2024/01/28 06:58:02;;;;;;;25.70;8.32;;;;;;;-0.45;100.00;102868.72;5287428;27;20481;-70
2024/01/28 07:00:32;;;;;;;20.20;8.05;;;;;;;-0.46;100.00;102874.88;5287974;27;20028;-70
2024/01/28 07:03:03;;;;;;;23.10;8.55;;;;;;;-0.47;100.00;102872.31;5288768;28;20024;-70
2024/01/28 07:05:34;;;;;;;17.35;7.72;;;;;;;-0.50;100.00;102878.56;5286413;28;20106;-71
2024/01/28 07:08:07;;;;;;;25.27;8.30;;;;;;;-0.56;100.00;102874.28;5288543;27;20294;-71
2024/01/28 07:10:37;;;;;;;20.85;8.32;;;;;;;-0.55;100.00;102869.91;5295242;27;20400;-70
2024/01/28 07:13:08;;;;;;;20.58;7.93;;;;;;;-0.53;100.00;102879.50;5294766;27;20064;-71
2024/01/28 07:15:39;;;;;;;18.23;8.02;;;;;;;-0.50;100.00;102882.94;5289085;28;20051;-71
2024/01/28 07:18:09;;;;;;;18.88;7.20;;;;;;;-0.49;100.00;102874.13;5287431;27;20084;-70
2024/01/28 07:20:40;;;;;;;20.10;8.15;;;;;;;-0.52;100.00;102869.81;5288740;28;20027;-71
2024/01/28 07:23:10;;;;;;;20.23;7.82;;;;;;;-0.50;100.00;102868.00;5294303;27;20027;-71
2024/01/28 07:25:41;;;;;;;21.63;8.35;;;;;;;-0.48;100.00;102867.94;5290777;27;20035;-71
2024/01/28 07:28:11;;;;;;;19.15;8.25;;;;;;;-0.52;100.00;102869.81;5287028;27;20464;-71
2024/01/28 07:30:42;;;;;;;22.98;8.05;;;;;;;-0.54;100.00;102874.28;5285932;27;20110;-71
2024/01/28 07:33:13;;;;;;;25.75;8.68;;;;;;;-0.56;100.00;102863.75;5286568;27;20047;-71
2024/01/28 07:35:43;;;;;;;19.83;8.15;;;;;;;-0.53;100.00;102865.44;5291259;27;20381;-71
2024/01/28 07:38:14;;;;;;;18.30;8.05;;;;;;;-0.48;100.00;102867.94;5287611;27;20008;-71
2024/01/28 07:40:44;;;;;;;21.05;8.10;;;;;;;-0.42;100.00;102865.97;5288213;28;20142;-71
2024/01/28 07:43:15;;;;;;;18.85;7.63;;;;;;;-0.35;100.00;102867.53;5285259;27;20374;-70
2024/01/28 07:45:45;;;;;;;30.95;7.80;;;;;;;-0.27;100.00;102862.88;5283723;28;20028;-70
2024/01/28 07:48:16;;;;;;;28.83;7.25;;;;;;;-0.22;100.00;102852.19;5282098;27;20025;-71
2024/01/28 07:50:47;;;;;;;16.98;7.47;;;;;;;-0.13;100.00;102864.22;5279209;28;20031;-71
2024/01/28 07:53:17;;;;;;;26.23;8.32;;;;;;;-0.08;100.00;102864.94;5289442;27;20027;-71
2024/01/28 07:55:48;;;;;;;19.20;7.47;;;;;;;-0.01;100.00;102862.06;5292481;27;20028;-71
2024/01/28 07:58:18;;;;;;;15.57;7.28;;;;;;;0.05;100.00;102858.38;5287575;27;20026;-71
2024/01/28 08:00:49;;;;;;;17.95;7.22;;;;;;;0.20;100.00;102857.88;5291432;27;20028;-70
2024/01/28 08:03:19;;;;;;;16.40;7.63;;;;;;;0.39;100.00;102857.25;5289529;27;20032;-71
2024/01/28 08:05:50;;;;;;;19.85;6.78;;;;;;;0.61;100.00;102852.97;5286977;27;20023;-71
2024/01/28 08:08:20;;;;;;;19.83;7.88;;;;;;;0.87;100.00;102845.91;5284010;27;20027;-71
2024/01/28 08:10:51;;;;;;;15.75;7.00;;;;;;;1.17;100.00;102842.16;5287634;27;20032;-71
2024/01/28 08:13:22;;;;;;;22.05;7.35;;;;;;;1.52;100.00;102845.25;5290531;27;20046;-71
2024/01/28 08:15:57;;;;;;;17.30;6.65;;;;;;;1.84;100.00;102837.81;5289674;27;20031;-71
2024/01/28 08:18:28;;;;;;;20.42;8.05;;;;;;;2.20;100.00;102844.25;5287307;28;20027;-71
2024/01/28 08:20:58;;;;;;;20.40;7.90;;;;;;;2.52;100.00;102842.06;5291801;27;20031;-72
2024/01/28 08:23:29;;;;;;;15.82;7.47;;;;;;;2.86;100.00;102844.09;5288004;27;20102;-71
2024/01/28 08:25:59;;;;;;;16.48;6.13;;;;;;;3.08;100.00;102825.44;5292287;27;20369;-71
2024/01/28 08:28:30;;;;;;;15.45;6.57;;;;;;;3.33;100.00;102820.75;5288844;27;20081;-71
2024/01/28 08:31:00;;;;;;;14.13;5.95;;;;;;;3.46;100.00;102823.66;5286956;27;20048;-71
2024/01/28 08:33:31;;;;;;;20.58;6.78;;;;;;;3.57;100.00;102820.53;5289025;27;20031;-72
2024/01/28 08:36:01;;;;;;;21.50;7.80;;;;;;;3.78;100.00;102810.66;5285702;27;20027;-71
2024/01/28 08:38:32;;;;;;;18.17;7.25;;;;;;;4.15;100.00;102813.22;5289939;27;20027;-71
2024/01/28 08:41:03;;;;;;;23.85;7.38;;;;;;;4.38;100.00;102814.72;5286676;27;20023;-71
2024/01/28 08:43:35;;;;;;;10.77;6.68;;;;;;;4.63;100.00;102810.81;5290581;27;20059;-72
2024/01/28 08:46:05;;;;;;;15.75;6.57;;;;;;;4.95;100.00;102814.41;5290094;27;20543;-72
2024/01/28 08:48:35;;;;;;;17.55;6.03;;;;;;;5.41;100.00;102817.25;5287660;27;20031;-71
2024/01/28 08:51:06;;;;;;;15.93;6.20;;;;;;;5.75;100.00;102808.22;5290150;27;20031;-72
2024/01/28 08:53:36;;;;;;;11.02;5.47;;;;;;;6.16;100.00;102815.66;5286262;28;20061;-72
2024/01/28 08:56:07;;;;;;;11.20;5.72;;;;;;;6.58;100.00;102808.75;5293030;27;20030;-71
2024/01/28 08:58:37;;;;;;;13.88;5.95;;;;;;;6.89;100.00;102810.41;5289618;27;20051;-71
2024/01/28 09:01:08;;;;;;;10.93;5.18;;;;;;;7.23;100.00;102794.00;5287824;27;20098;-72
2024/01/28 09:03:39;;;;;;;12.48;5.85;;;;;;;7.59;100.00;102792.59;5288339;27;20085;-72
2024/01/28 09:06:09;;;;;;;15.70;5.60;;;;;;;8.01;100.00;102791.59;5286146;28;20032;-72
2024/01/28 09:08:40;;;;;;;11.23;5.35;;;;;;;8.35;100.00;102792.00;5287299;27;20043;-72
2024/01/28 09:11:10;;;;;;;17.33;5.53;;;;;;;8.50;100.00;102790.97;5286570;27;20473;-72
2024/01/28 09:13:41;;;;;;;14.13;6.13;;;;;;;8.72;100.00;102785.00;5284695;28;20023;-72
2024/01/28 09:16:12;;;;;;;11.07;5.75;;;;;;;8.95;100.00;102791.41;5287828;27;20081;-72
2024/01/28 09:18:42;;;;;;;13.48;5.35;;;;;;;9.18;100.00;102788.91;5286342;27;20066;-72
2024/01/28 09:21:13;;;;;;;9.02;5.05;;;;;;;9.34;100.00;102786.88;5289186;27;20023;-72
2024/01/28 09:23:43;;;;;;;13.25;5.32;;;;;;;9.48;100.00;102785.84;5289549;27;20080;-72
2024/01/28 09:26:14;;;;;;;12.90;5.68;;;;;;;9.67;100.00;102788.03;5286046;28;20015;-72
2024/01/28 09:28:44;;;;;;;14.93;6.43;;;;;;;9.82;100.00;102778.84;5286989;27;20035;-72
2024/01/28 09:31:15;;;;;;;12.63;6.35;;;;;;;10.13;100.00;102782.75;5287127;27;20046;-73
2024/01/28 09:33:45;;;;;;;14.55;6.88;;;;;;;10.35;100.00;102782.03;5287808;27;20031;-73
2024/01/28 09:36:16;;;;;;;12.13;5.68;;;;;;;10.31;100.00;102783.22;5287021;27;20019;-72
2024/01/28 09:38:46;;;;;;;10.55;5.05;;;;;;;10.30;100.00;102778.84;5285384;28;20404;-73
2024/01/28 09:41:25;;;;;;;9.18;5.22;;;;;;;10.33;100.00;102779.44;5286994;27;20042;-73
2024/01/28 09:43:55;;;;;;;11.35;5.32;;;;;;;10.47;100.00;102772.16;5289373;27;20027;-73
2024/01/28 09:46:26;;;;;;;9.40;4.70;;;;;;;10.41;100.00;102769.97;5290026;27;20038;-74
2024/01/28 09:48:59;;;;;;;9.63;5.22;;;;;;;10.27;100.00;102771.88;5285958;27;20040;-74
2024/01/28 09:51:29;;;;;;;12.30;4.80;;;;;;;10.46;100.00;102768.63;5291541;27;20427;-74
2024/01/28 09:54:00;;;;;;;9.25;4.85;;;;;;;10.46;100.00;102765.09;5286984;28;20111;-74
2024/01/28 09:56:32;;;;;;;9.43;4.60;;;;;;;10.40;100.00;102758.38;5287605;27;20016;-74
2024/01/28 09:59:04;;;;;;;10.48;5.22;;;;;;;10.26;100.00;102755.91;5288625;27;20459;-73
2024/01/28 10:01:35;;;;;;;14.77;5.20;;;;;;;10.30;100.00;102757.38;5282104;27;20493;-72
2024/01/28 10:04:07;;;;;;;8.15;4.50;;;;;;;10.44;100.00;102748.25;5286376;27;20077;-72
2024/01/28 10:06:37;;;;;;;11.68;4.30;;;;;;;10.51;100.00;102757.56;5287402;27;20024;-72
2024/01/28 10:09:08;;;;;;;7.88;4.05;;;;;;;10.68;100.00;102756.22;5284021;27;20020;-72
2024/01/28 10:11:38;;;;;;;6.97;3.75;;;;;;;10.79;100.00;102764.28;5287583;27;20023;-72
2024/01/28 10:14:09;;;;;;;11.13;3.58;;;;;;;10.73;100.00;102759.41;5288641;27;20035;-72
2024/01/28 10:16:39;;;;;;;11.25;3.50;;;;;;;10.43;100.00;102768.00;5286185;28;20030;-72
2024/01/28 10:19:09;;;;;;;9.02;3.35;;;;;;;10.03;100.00;102760.28;5283042;28;20023;-72
2024/01/28 10:21:42;;;;;;;8.60;3.63;;;;;;;9.92;100.00;102754.91;5287337;27;20062;-72
2024/01/28 10:24:15;;;;;;;8.40;3.13;;;;;;;9.81;100.00;102756.56;5286831;27;20043;-72
2024/01/28 10:26:45;;;;;;;6.45;2.85;;;;;;;9.69;100.00;102752.13;5286808;27;20027;-72
2024/01/28 10:29:17;;;;;;;4.70;2.63;;;;;;;9.48;100.00;102748.34;5286355;27;20038;-72
2024/01/28 10:31:48;;;;;;;7.30;3.42;;;;;;;9.30;100.00;102742.53;5280672;28;20401;-73
2024/01/28 10:34:18;;;;;;;8.20;3.05;;;;;;;9.41;100.00;102734.53;5284765;27;20028;-73
2024/01/28 10:36:52;;;;;;;10.32;3.17;;;;;;;9.36;100.00;102731.34;5285426;28;20030;-73
2024/01/28 10:39:22;;;;;;;6.15;2.45;;;;;;;9.32;100.00;102730.72;5280216;27;20032;-73
2024/01/28 10:41:56;;;;;;;4.97;2.90;;;;;;;9.39;100.00;102738.28;5280217;28;20039;-72
2024/01/28 10:44:26;;;;;;;8.00;3.40;;;;;;;9.31;100.00;102729.00;5285406;27;20063;-73
2024/01/28 10:46:58;;;;;;;10.02;3.60;;;;;;;9.39;100.00;102733.81;5284692;28;20404;-72
2024/01/28 10:49:31;;;;;;;6.53;2.70;;;;;;;9.33;100.00;102724.38;5287312;28;20027;-72
2024/01/28 10:52:02;;;;;;;7.85;3.38;;;;;;;9.43;100.00;102721.88;5276091;28;20019;-73
2024/01/28 10:54:33;;;;;;;8.80;3.10;;;;;;;9.55;100.00;102729.03;5287469;28;20024;-72
2024/01/28 10:57:05;;;;;;;7.43;2.67;;;;;;;9.71;100.00;102727.88;5284783;28;20489;-72
2024/01/28 10:59:38;;;;;;;9.20;2.90;;;;;;;9.87;100.00;102715.03;5287651;28;20020;-72
2024/01/28 11:02:09;;;;;;;7.72;3.13;;;;;;;9.87;100.00;102709.66;5284452;28;20129;-72
2024/01/28 11:04:40;;;;;;;7.13;2.80;;;;;;;9.94;100.00;102704.69;5285894;28;20102;-72
2024/01/28 11:07:12;;;;;;;6.60;3.05;;;;;;;10.02;100.00;102702.28;5286437;28;20442;-72
2024/01/28 11:09:43;;;;;;;9.82;3.00;;;;;;;10.16;100.00;102687.81;5284367;28;20055;-73
2024/01/28 11:12:13;;;;;;;7.82;2.85;;;;;;;10.20;100.00;102690.16;5283359;28;20055;-74
2024/01/28 11:14:44;;;;;;;8.75;3.30;;;;;;;10.27;100.00;102686.03;5285971;28;20490;-74
2024/01/28 11:17:15;;;;;;;7.05;2.85;;;;;;;10.29;100.00;102689.47;5285077;28;20059;-74
2024/01/28 11:19:46;;;;;;;13.80;2.83;;;;;;;10.49;100.00;102677.19;5284685;28;20378;-74
2024/01/28 11:22:17;;;;;;;5.20;2.78;;;;;;;10.61;100.00;102681.56;5281891;28;20076;-74
2024/01/28 11:24:52;;;;;;;8.32;2.80;;;;;;;10.75;100.00;102677.78;5283057;28;20036;-74
2024/01/28 11:27:28;;;;;;;;;;;;;;;10.89;100.00;102679.34;5286332;28;20368;-74
2024/01/28 11:29:59;;;;;;;9.02;2.83;;;;;;;10.94;100.00;102681.66;5284103;28;19916;-74